| time (UTC) | temp F | wind direction | speed MPH | gust MPH | rain 1hr in | rain 24hr in | rain mn in | humidity % | barometer mb |
| 20260509171544 | 79 | 323 | 13.0 | 23.0 | 0.00 | 0.00 | 0.00 | 33 | 1008.0 |
| 20260509170046 | 80 | 298 | 15.0 | 25.0 | 0.00 | 0.00 | 0.00 | 32 | 1007.9 |
| 20260509164545 | 80 | 296 | 19.0 | 29.0 | 0.00 | 0.00 | 0.00 | 32 | 1007.9 |
| 20260509163048 | 80 | 288 | 14.0 | 26.0 | 0.00 | 0.00 | 0.00 | 33 | 1007.9 |
| 20260509161554 | 79 | 282 | 14.0 | 23.0 | 0.00 | 0.00 | 0.00 | 32 | 1007.9 |
| 20260509160044 | 77 | 292 | 14.0 | 26.0 | 0.00 | 0.00 | 0.00 | 34 | 1008.0 |
| 20260509154552 | 76 | 320 | 17.0 | 25.0 | 0.00 | 0.00 | 0.00 | 34 | 1008.0 |
| 20260509153049 | 75 | 302 | 15.0 | 25.0 | 0.00 | 0.00 | 0.00 | 34 | 1008.2 |
| 20260509151549 | 73 | 318 | 12.0 | 20.0 | 0.00 | 0.00 | 0.00 | 35 | 1008.1 |
| 20260509150040 | 72 | 221 | 6.0 | 12.0 | 0.00 | 0.00 | 0.00 | 37 | 1008.2 |
| 20260509144544 | 70 | 360 | 5.0 | 11.0 | 0.00 | 0.00 | 0.00 | 39 | 1008.5 |
| 20260509143044 | 68 | 278 | 6.0 | 14.0 | 0.00 | 0.00 | 0.00 | 43 | 1008.7 |
| 20260509141542 | 65 | 259 | 7.0 | 12.0 | 0.00 | 0.00 | 0.00 | 48 | 1008.7 |
| 20260509140039 | 64 | 257 | 8.0 | 13.0 | 0.00 | 0.00 | 0.00 | 47 | 1008.8 |
| 20260509134537 | 62 | 254 | 5.0 | 10.0 | 0.00 | 0.00 | 0.00 | 50 | 1008.6 |
| 20260509133048 | 60 | 254 | 3.0 | 7.0 | 0.00 | 0.00 | 0.00 | 54 | 1008.6 |
| 20260509131546 | 57 | 267 | 1.0 | 4.0 | 0.00 | 0.00 | 0.00 | 59 | 1008.6 |
| 20260509130055 | 54 | 0 | 0.0 | 3.0 | 0.00 | 0.00 | 0.00 | 62 | 1008.6 |
| 20260509124546 | 51 | 360 | 2.0 | 4.0 | 0.00 | 0.00 | 0.00 | 64 | 1008.6 |
| 20260509123039 | 49 | 360 | 2.0 | 4.0 | 0.00 | 0.00 | 0.00 | 64 | 1008.4 |
| 20260509121545 | 48 | 360 | 2.0 | 4.0 | 0.00 | 0.00 | 0.00 | 64 | 1008.6 |
| 20260509120043 | 49 | 360 | 2.0 | 4.0 | 0.00 | 0.00 | 0.00 | 61 | 1008.3 |
| 20260509114548 | 49 | 297 | 1.0 | 3.0 | 0.00 | 0.00 | 0.00 | 62 | 1008.1 |
| 20260509113042 | 48 | 301 | 1.0 | 3.0 | 0.00 | 0.00 | 0.00 | 63 | 1008.2 |
| 20260509111541 | 48 | 305 | 1.0 | 4.0 | 0.00 | 0.00 | 0.00 | 63 | 1008.2 |
| 20260509110045 | 48 | 294 | 3.0 | 5.0 | 0.00 | 0.00 | 0.00 | 64 | 1008.2 |
| 20260509104547 | 47 | 295 | 1.0 | 2.0 | 0.00 | 0.00 | 0.00 | 64 | 1008.2 |
| 20260509103052 | 48 | 300 | 1.0 | 5.0 | 0.00 | 0.00 | 0.00 | 62 | 1008.1 |
| 20260509101552 | 49 | 319 | 3.0 | 4.0 | 0.00 | 0.00 | 0.00 | 61 | 1008.2 |
| 20260509100054 | 49 | 300 | 2.0 | 4.0 | 0.00 | 0.00 | 0.00 | 61 | 1008.4 |
| 20260509094545 | 48 | 317 | 2.0 | 5.0 | 0.00 | 0.00 | 0.00 | 62 | 1008.4 |
| 20260509093052 | 48 | 313 | 3.0 | 5.0 | 0.00 | 0.00 | 0.00 | 63 | 1008.6 |
| 20260509091555 | 47 | 279 | 4.0 | 6.0 | 0.00 | 0.00 | 0.00 | 64 | 1008.7 |
| 20260509090051 | 49 | 360 | 2.0 | 4.0 | 0.00 | 0.00 | 0.00 | 61 | 1008.3 |
| 20260509084555 | 50 | 360 | 1.0 | 5.0 | 0.00 | 0.00 | 0.00 | 60 | 1008.5 |
| 20260509083049 | 50 | 360 | 3.0 | 5.0 | 0.00 | 0.00 | 0.00 | 60 | 1008.4 |
| 20260509081549 | 51 | 360 | 3.0 | 4.0 | 0.00 | 0.00 | 0.00 | 59 | 1008.5 |
| 20260509080041 | 50 | 360 | 2.0 | 3.0 | 0.00 | 0.00 | 0.00 | 60 | 1008.4 |
| 20260509074538 | 50 | 360 | 2.0 | 4.0 | 0.00 | 0.00 | 0.00 | 60 | 1008.6 |
| 20260509073048 | 51 | 333 | 1.0 | 2.0 | 0.00 | 0.00 | 0.00 | 58 | 1008.6 |
| 20260509071547 | 53 | 360 | 1.0 | 3.0 | 0.00 | 0.00 | 0.00 | 55 | 1008.7 |
| 20260509070043 | 53 | 360 | 1.0 | 4.0 | 0.00 | 0.00 | 0.00 | 54 | 1008.8 |
| 20260509064538 | 54 | 360 | 1.0 | 4.0 | 0.00 | 0.00 | 0.00 | 53 | 1008.8 |
| 20260509063041 | 54 | 360 | 2.0 | 4.0 | 0.00 | 0.00 | 0.00 | 53 | 1008.9 |
| 20260509061541 | 55 | 323 | 2.0 | 6.0 | 0.00 | 0.00 | 0.00 | 51 | 1008.9 |
| 20260509060100 | 56 | 352 | 3.0 | 5.0 | 0.00 | 0.00 | 0.00 | 50 | 1008.8 |
| 20260509054548 | 57 | 360 | 2.0 | 8.0 | 0.00 | 0.00 | 0.00 | 48 | 1008.9 |
| 20260509053041 | 58 | 328 | 3.0 | 11.0 | 0.00 | 0.00 | 0.00 | 47 | 1008.7 |
| 20260509051541 | 59 | 360 | 5.0 | 10.0 | 0.00 | 0.00 | 0.00 | 46 | 1008.7 |
| 20260509050105 | 59 | 352 | 4.0 | 8.0 | 0.00 | 0.00 | 0.00 | 46 | 1008.7 |
| 20260509044557 | 59 | 344 | 3.0 | 8.0 | 0.00 | 0.00 | 0.00 | 46 | 1008.8 |
| 20260509043052 | 58 | 332 | 2.0 | 3.0 | 0.00 | 0.00 | 0.00 | 47 | 1008.7 |
| 20260509041548 | 58 | 332 | 2.0 | 6.0 | 0.00 | 0.00 | 0.00 | 46 | 1008.5 |
| 20260509040056 | 58 | 320 | 2.0 | 5.0 | 0.00 | 0.00 | 0.00 | 45 | 1008.6 |
| 20260509034548 | 62 | 360 | 2.0 | 6.0 | 0.00 | 0.00 | 0.00 | 40 | 1008.5 |
| 20260509033050 | 64 | 328 | 2.0 | 4.0 | 0.00 | 0.00 | 0.00 | 38 | 1008.3 |
| 20260509031552 | 66 | 360 | 2.0 | 5.0 | 0.00 | 0.00 | 0.00 | 36 | 1008.1 |
| 20260509030043 | 66 | 360 | 3.0 | 5.0 | 0.00 | 0.00 | 0.00 | 35 | 1008.0 |
| 20260509024548 | 67 | 360 | 3.0 | 5.0 | 0.00 | 0.00 | 0.00 | 35 | 1007.8 |
| 20260509023059 | 68 | 342 | 3.0 | 5.0 | 0.00 | 0.00 | 0.00 | 34 | 1007.7 |
| 20260509021549 | 69 | 343 | 3.0 | 5.0 | 0.00 | 0.00 | 0.00 | 34 | 1007.6 |
| 20260509020042 | 69 | 351 | 2.0 | 5.0 | 0.00 | 0.00 | 0.00 | 33 | 1007.5 |
| 20260509014544 | 69 | 360 | 2.0 | 6.0 | 0.00 | 0.00 | 0.00 | 32 | 1007.3 |
| 20260509013046 | 71 | 340 | 4.0 | 10.0 | 0.00 | 0.00 | 0.00 | 30 | 1007.2 |
| 20260509011546 | 73 | 329 | 6.0 | 11.0 | 0.00 | 0.00 | 0.00 | 29 | 1007.0 |
| 20260509010048 | 75 | 343 | 5.0 | 9.0 | 0.00 | 0.00 | 0.00 | 27 | 1007.0 |
| 20260509004542 | 76 | 340 | 4.0 | 9.0 | 0.00 | 0.00 | 0.00 | 27 | 1007.0 |
| 20260509003055 | 77 | 5 | 8.0 | 20.0 | 0.00 | 0.00 | 0.00 | 26 | 1006.7 |
| 20260509001547 | 77 | 315 | 7.0 | 20.0 | 0.00 | 0.00 | 0.00 | 25 | 1006.8 |
| 20260509000054 | 77 | 344 | 9.0 | 19.0 | 0.00 | 0.00 | 0.00 | 25 | 1006.6 |
| 20260508234541 | 77 | 315 | 12.0 | 21.0 | 0.00 | 0.00 | 0.00 | 25 | 1006.6 |
| 20260508233052 | 76 | 320 | 12.0 | 19.0 | 0.00 | 0.00 | 0.00 | 27 | 1006.8 |
| 20260508231549 | 76 | 336 | 13.0 | 20.0 | 0.00 | 0.00 | 0.00 | 27 | 1006.7 |
| 20260508230043 | 77 | 10 | 9.0 | 16.0 | 0.00 | 0.00 | 0.00 | 27 | 1006.7 |
| 20260508224548 | 77 | 328 | 8.0 | 17.0 | 0.00 | 0.00 | 0.00 | 27 | 1006.6 |
| 20260508223043 | 76 | 338 | 4.0 | 8.0 | 0.00 | 0.00 | 0.00 | 31 | 1006.6 |
| 20260508221546 | 75 | 11 | 5.0 | 11.0 | 0.00 | 0.00 | 0.00 | 32 | 1006.8 |
| 20260508220041 | 75 | 65 | 8.0 | 22.0 | 0.00 | 0.00 | 0.00 | 31 | 1006.8 |
| 20260508214538 | 75 | 315 | 14.0 | 20.0 | 0.00 | 0.00 | 0.00 | 29 | 1007.0 |
| 20260508213044 | 76 | 346 | 11.0 | 21.0 | 0.00 | 0.00 | 0.00 | 29 | 1006.9 |
| 20260508211543 | 76 | 355 | 8.0 | 16.0 | 0.00 | 0.00 | 0.00 | 29 | 1007.0 |
| 20260508210040 | 77 | 320 | 13.0 | 22.0 | 0.00 | 0.00 | 0.00 | 29 | 1007.2 |
| 20260508204543 | 76 | 31 | 5.0 | 11.0 | 0.00 | 0.00 | 0.00 | 31 | 1007.3 |
| 20260508203040 | 75 | 341 | 12.0 | 19.0 | 0.00 | 0.00 | 0.00 | 32 | 1007.6 |
| 20260508201544 | 75 | 347 | 2.0 | 14.0 | 0.00 | 0.00 | 0.00 | 33 | 1007.7 |
| 20260508200045 | 75 | 33 | 3.0 | 11.0 | 0.00 | 0.00 | 0.00 | 34 | 1007.9 |
| 20260508194610 | 74 | 323 | 3.0 | 11.0 | 0.00 | 0.00 | 0.00 | 34 | 1008.0 |
| 20260508193048 | 74 | 74 | 7.0 | 13.0 | 0.00 | 0.00 | 0.00 | 35 | 1008.3 |
| 20260508191539 | 73 | 195 | 4.0 | 13.0 | 0.00 | 0.00 | 0.00 | 34 | 1008.4 |
| 20260508190045 | 73 | 317 | 6.0 | 15.0 | 0.00 | 0.00 | 0.00 | 34 | 1008.5 |
| 20260508184541 | 73 | 46 | 6.0 | 15.0 | 0.00 | 0.00 | 0.00 | 33 | 1008.6 |
| 20260508183041 | 73 | 326 | 4.0 | 10.0 | 0.00 | 0.00 | 0.00 | 34 | 1008.9 |
| 20260508181615 | 72 | 265 | 7.0 | 13.0 | 0.00 | 0.00 | 0.00 | 34 | 1009.1 |
| 20260508180045 | 72 | 19 | 7.0 | 12.0 | 0.00 | 0.00 | 0.00 | 34 | 1009.3 |
| 20260508174545 | 71 | 10 | 3.0 | 12.0 | 0.00 | 0.00 | 0.00 | 35 | 1009.4 |
| 20260508173044 | 71 | 61 | 5.0 | 10.0 | 0.00 | 0.00 | 0.00 | 35 | 1009.5 |